Terminal Aerodrome Forecast
Issued by NWS

Home | Current Version | Previous Version | Text Only | Print | Product List | Glossary On
Versions: 1 2 3 4 5 6 7 8 9 10 11 12 13 14 15 16 17 18 19 20 21
000
FTUS44 KLZK 052300
TAFLLQ
TAF
KLLQ 052334Z 0600/0624 20005KT P6SM SCT060 BKN120
      TEMPO 0610/0614 3SM BR
     FM061400 22008G15KT P6SM SCT030 BKN250
     FM062000 21010G20KT P6SM VCTS SCT030CB BKN250=

USA.gov is the U.S. government's official web portal to all federal, state and local government web resources and services.